Time;durP1;ratioP1;P1;durP2;ratioP2;P2;SDS_P1;SDS_P2;PMS_P1;PMS_P2;Temp;Humidity;BMP_temperature;BMP_pressure;BME280_temperature;BME280_humidity;BME280_pressure;Samples;Min_cycle;Max_cycle;Signal;HPM_P1;HPM_P2
2023/06/12 00:00:11;;;;;;;20.02;8.30;;;;;;;15.28;100.00;101169.88;5006466;28;20046;-64
2023/06/12 00:02:39;;;;;;;13.30;4.45;;;;;;;15.30;100.00;101173.31;4998630;28;20100;-64
2023/06/12 00:05:08;;;;;;;12.05;4.82;;;;;;;15.45;100.00;101159.31;5006295;28;20463;-64
2023/06/12 00:07:35;;;;;;;12.55;4.50;;;;;;;15.51;100.00;101159.03;5009739;28;20475;-64
2023/06/12 00:10:03;;;;;;;14.65;5.18;;;;;;;15.43;100.00;101168.25;4999800;28;20049;-64
2023/06/12 00:12:29;;;;;;;14.48;5.78;;;;;;;15.40;100.00;101152.59;5006644;28;20050;-63
2023/06/12 00:14:56;;;;;;;14.55;6.22;;;;;;;15.43;100.00;101153.28;4997114;28;20052;-64
2023/06/12 00:17:23;;;;;;;13.65;6.05;;;;;;;15.44;100.00;101170.84;5010359;28;20053;-63
2023/06/12 00:19:50;;;;;;;12.85;5.15;;;;;;;15.41;100.00;101151.66;5010163;28;20112;-63
2023/06/12 00:22:16;;;;;;;12.65;4.97;;;;;;;15.47;100.00;101161.88;5007712;28;20048;-64
2023/06/12 00:24:43;;;;;;;14.60;6.07;;;;;;;15.50;100.00;101159.94;4994270;28;20056;-64
2023/06/12 00:27:11;;;;;;;10.30;4.57;;;;;;;15.38;100.00;101163.22;5008526;28;20535;-64
2023/06/12 00:29:38;;;;;;;13.98;6.38;;;;;;;15.40;100.00;101157.84;5007799;28;20053;-64
2023/06/12 00:32:05;;;;;;;12.73;5.70;;;;;;;15.51;100.00;101156.38;5002673;28;20093;-64
2023/06/12 00:34:32;;;;;;;16.40;6.63;;;;;;;15.59;100.00;101147.22;4996516;28;20419;-64
2023/06/12 00:36:58;;;;;;;17.77;6.90;;;;;;;15.65;100.00;101147.75;5003626;28;20056;-64
2023/06/12 00:39:25;;;;;;;24.95;9.57;;;;;;;15.64;100.00;101151.31;5010168;28;20048;-64
2023/06/12 00:41:52;;;;;;;28.80;9.85;;;;;;;15.63;100.00;101161.94;5005418;28;20088;-64
2023/06/12 00:44:19;;;;;;;21.13;10.02;;;;;;;15.63;100.00;101156.66;5009675;28;20046;-64
2023/06/12 00:46:46;;;;;;;19.88;8.93;;;;;;;15.71;100.00;101165.06;5009906;28;20050;-64
2023/06/12 00:49:13;;;;;;;16.40;7.90;;;;;;;15.73;100.00;101145.53;5008697;28;20053;-64
2023/06/12 00:51:41;;;;;;;23.23;9.70;;;;;;;15.68;100.00;101152.00;5009236;28;20060;-64
2023/06/12 00:54:08;;;;;;;21.02;8.95;;;;;;;15.76;100.00;101144.59;5008311;28;20045;-64
2023/06/12 00:56:34;;;;;;;18.45;8.68;;;;;;;15.58;100.00;101151.63;5002789;28;20046;-64
2023/06/12 00:59:02;;;;;;;26.73;11.65;;;;;;;15.23;100.00;101117.38;5013697;28;20053;-64
2023/06/12 01:01:29;;;;;;;22.77;9.88;;;;;;;15.45;100.00;101155.84;5002538;28;20132;-64
2023/06/12 01:03:57;;;;;;;25.95;10.15;;;;;;;15.26;100.00;101140.09;5009228;28;20053;-64
2023/06/12 01:06:38;;;;;;;17.15;7.65;;;;;;;15.31;100.00;101138.06;4997245;28;20054;-64
2023/06/12 01:09:23;;;;;;;16.17;7.45;;;;;;;15.26;100.00;101145.38;5010209;28;20076;-64
2023/06/12 01:11:52;;;;;;;20.83;8.23;;;;;;;15.32;100.00;101127.44;5012575;28;20052;-64
2023/06/12 01:14:20;;;;;;;17.90;7.35;;;;;;;15.38;100.00;101139.47;5008618;28;20042;-64
2023/06/12 01:16:47;;;;;;;13.88;6.32;;;;;;;15.46;100.00;101136.44;5012785;28;20419;-64
2023/06/12 01:19:16;;;;;;;13.52;5.88;;;;;;;15.47;100.00;101130.22;5011673;28;20058;-64
2023/06/12 01:21:48;;;;;;;12.93;5.47;;;;;;;15.65;100.00;101134.56;5011185;28;20046;-63
2023/06/12 01:24:40;;;;;;;15.68;7.40;;;;;;;15.71;100.00;101139.50;5002314;28;20049;-63
2023/06/12 01:27:33;;;;;;;14.88;6.65;;;;;;;15.58;100.00;101141.06;5007252;28;20046;-64
2023/06/12 01:30:24;;;;;;;15.38;6.93;;;;;;;15.64;100.00;101118.81;4979360;28;20399;-64
2023/06/12 01:32:52;;;;;;;18.20;7.25;;;;;;;15.50;100.00;101133.56;5010162;28;20064;-63
2023/06/12 01:35:23;;;;;;;16.00;7.13;;;;;;;15.59;100.00;101123.47;5005683;28;20118;-63
2023/06/12 01:37:56;;;;;;;13.85;6.40;;;;;;;15.60;100.00;101130.44;4996294;28;20064;-63
2023/06/12 01:40:26;;;;;;;16.45;6.20;;;;;;;15.52;100.00;101134.31;4999083;28;20049;-63
2023/06/12 01:42:53;;;;;;;13.13;5.55;;;;;;;15.38;100.00;101092.81;4994934;28;20473;-63
2023/06/12 01:45:20;;;;;;;18.42;7.93;;;;;;;15.56;100.00;101125.34;4998175;28;20056;-64
2023/06/12 01:47:46;;;;;;;18.05;8.95;;;;;;;15.61;100.00;101130.34;5012104;28;20073;-63
2023/06/12 01:50:13;;;;;;;19.48;8.05;;;;;;;15.49;100.00;101128.34;5011267;28;20058;-63
2023/06/12 01:52:40;;;;;;;17.90;7.72;;;;;;;15.59;100.00;101119.03;5007325;28;20483;-63
2023/06/12 01:55:08;;;;;;;17.15;7.07;;;;;;;15.49;100.00;101115.16;5012540;28;20042;-63
2023/06/12 01:57:36;;;;;;;14.65;6.28;;;;;;;15.65;100.00;101128.41;5027427;28;20520;-63
2023/06/12 02:00:06;;;;;;;16.55;7.28;;;;;;;15.65;100.00;101117.84;5008363;28;20043;-63
2023/06/12 02:02:33;;;;;;;14.88;7.20;;;;;;;15.68;100.00;101121.19;5008419;28;20054;-63
2023/06/12 02:04:59;;;;;;;15.80;6.85;;;;;;;15.65;100.00;101115.22;4994414;28;20108;-63
2023/06/12 02:07:26;;;;;;;14.60;5.72;;;;;;;15.71;100.00;101110.47;5008128;28;20145;-64
2023/06/12 02:09:53;;;;;;;20.52;8.82;;;;;;;15.55;100.00;101107.78;5000489;28;20058;-63
2023/06/12 02:12:20;;;;;;;14.45;6.28;;;;;;;15.56;100.00;101122.69;5010972;28;20380;-63
2023/06/12 02:14:50;;;;;;;14.25;6.50;;;;;;;15.59;100.00;101112.91;5009629;28;20069;-63
2023/06/12 02:17:19;;;;;;;19.02;7.22;;;;;;;15.51;100.00;101115.94;5027706;28;20060;-64
2023/06/12 02:19:46;;;;;;;18.00;7.75;;;;;;;15.49;100.00;101113.41;5005040;28;20089;-63
2023/06/12 02:22:13;;;;;;;15.73;6.47;;;;;;;15.53;100.00;101114.09;5010743;28;20053;-63
2023/06/12 02:24:40;;;;;;;15.75;5.75;;;;;;;15.55;100.00;101110.41;5006649;28;20077;-63
2023/06/12 02:27:07;;;;;;;15.73;7.30;;;;;;;15.48;100.00;101106.41;5012029;28;20046;-63
2023/06/12 02:29:34;;;;;;;19.85;7.68;;;;;;;15.49;100.00;101100.19;5002814;28;20148;-63
2023/06/12 02:32:01;;;;;;;17.42;7.75;;;;;;;15.32;100.00;101094.94;5019881;28;20060;-63
2023/06/12 02:34:27;;;;;;;21.95;8.05;;;;;;;15.35;100.00;101108.84;5004917;28;20050;-63
2023/06/12 02:36:54;;;;;;;15.50;6.57;;;;;;;15.28;100.00;101106.56;4993103;28;20065;-63
2023/06/12 02:39:21;;;;;;;14.57;6.93;;;;;;;15.27;100.00;101115.44;4994209;28;20066;-63
2023/06/12 02:41:48;;;;;;;14.90;7.97;;;;;;;15.29;100.00;101114.41;4996692;28;20499;-63
2023/06/12 02:44:16;;;;;;;20.30;9.32;;;;;;;15.12;100.00;101101.22;4993803;28;20554;-63
2023/06/12 02:46:53;;;;;;;17.50;7.68;;;;;;;15.17;100.00;101099.22;5002464;28;20171;-63
2023/06/12 02:49:21;;;;;;;17.63;7.80;;;;;;;15.12;100.00;101111.78;5000473;28;20419;-63
2023/06/12 02:51:48;;;;;;;16.05;7.68;;;;;;;15.08;100.00;101112.88;5015704;28;20041;-64
2023/06/12 02:54:16;;;;;;;20.27;9.10;;;;;;;15.05;100.00;101108.63;5017279;28;20505;-63
2023/06/12 02:56:46;;;;;;;15.43;7.93;;;;;;;15.03;100.00;101115.72;5011455;28;20128;-63
2023/06/12 02:59:18;;;;;;;14.50;6.45;;;;;;;15.06;100.00;101122.66;5002385;28;20400;-64
2023/06/12 03:01:45;;;;;;;12.38;5.60;;;;;;;15.19;100.00;101121.94;5008323;28;20504;-64
2023/06/12 03:04:20;;;;;;;16.83;7.30;;;;;;;14.99;100.00;101127.38;5001035;28;20072;-63
2023/06/12 03:06:52;;;;;;;13.75;6.95;;;;;;;14.98;100.00;101126.53;4997599;28;20087;-63
2023/06/12 03:09:23;;;;;;;15.02;6.07;;;;;;;15.02;100.00;101114.03;4994273;28;20041;-63
2023/06/12 03:11:51;;;;;;;14.75;6.18;;;;;;;15.03;100.00;101112.25;4998778;28;20053;-62
2023/06/12 03:14:21;;;;;;;12.60;5.95;;;;;;;15.02;100.00;101115.81;4997457;28;20046;-63
2023/06/12 03:16:48;;;;;;;14.98;5.90;;;;;;;15.05;100.00;101127.06;5011641;28;20049;-64
2023/06/12 03:19:16;;;;;;;16.23;6.07;;;;;;;15.07;100.00;101122.56;5001609;28;20053;-63
2023/06/12 03:21:43;;;;;;;14.60;6.05;;;;;;;15.08;100.00;101123.41;5013654;28;20465;-63
2023/06/12 03:24:10;;;;;;;13.00;5.10;;;;;;;15.13;100.00;101129.31;5002638;28;20473;-63
2023/06/12 03:26:38;;;;;;;19.83;6.65;;;;;;;15.03;100.00;101128.91;5010286;28;20135;-63
2023/06/12 03:29:05;;;;;;;15.27;5.38;;;;;;;14.98;100.00;101137.06;5010154;28;20058;-64
2023/06/12 03:31:32;;;;;;;14.18;4.35;;;;;;;15.03;100.00;101121.00;5003456;28;20100;-63
2023/06/12 03:33:59;;;;;;;8.35;3.40;;;;;;;15.03;100.00;101122.78;5004071;28;21612;-64
2023/06/12 03:36:28;;;;;;;16.20;5.22;;;;;;;14.99;100.00;101141.38;5001529;28;20128;-63
2023/06/12 03:38:55;;;;;;;19.70;6.95;;;;;;;14.86;100.00;101134.19;4996838;28;20062;-63
2023/06/12 03:41:23;;;;;;;15.70;4.53;;;;;;;14.94;100.00;101153.09;4999754;28;20049;-64
2023/06/12 03:43:50;;;;;;;10.48;4.28;;;;;;;14.98;100.00;101146.78;5008634;28;20076;-63
2023/06/12 03:46:16;;;;;;;12.05;4.40;;;;;;;15.04;100.00;101156.16;5010141;28;20045;-62
2023/06/12 03:48:44;;;;;;;11.15;4.00;;;;;;;15.13;100.00;101167.09;5006904;28;20045;-63
2023/06/12 03:51:11;;;;;;;11.55;3.40;;;;;;;15.19;100.00;101166.78;5011174;28;20088;-63
2023/06/12 03:53:39;;;;;;;9.23;3.97;;;;;;;15.12;100.00;101157.47;5009393;28;20052;-64
2023/06/12 03:56:06;;;;;;;11.73;4.13;;;;;;;15.10;100.00;101159.34;5010140;28;20045;-63
2023/06/12 03:58:33;;;;;;;17.00;4.63;;;;;;;15.04;100.00;101166.69;5005137;28;20060;-63
2023/06/12 04:01:00;;;;;;;11.15;4.30;;;;;;;15.07;100.00;101153.34;5003461;28;20465;-63
2023/06/12 04:03:27;;;;;;;13.10;4.35;;;;;;;15.07;100.00;101158.63;5004712;28;20061;-63
2023/06/12 04:05:54;;;;;;;9.80;3.28;;;;;;;15.28;100.00;101160.19;4997252;28;20522;-63
2023/06/12 04:08:22;;;;;;;10.68;3.50;;;;;;;15.26;100.00;101158.56;4994892;28;20065;-64
2023/06/12 04:10:50;;;;;;;10.93;3.75;;;;;;;15.28;100.00;101148.78;4997684;28;20062;-63
2023/06/12 04:13:17;;;;;;;10.55;3.50;;;;;;;15.33;100.00;101155.56;4999916;28;20547;-63
2023/06/12 04:15:43;;;;;;;8.73;3.28;;;;;;;15.37;100.00;101148.34;4997482;28;20490;-63
2023/06/12 04:18:10;;;;;;;9.65;3.70;;;;;;;15.39;100.00;101143.81;5007521;28;20303;-64
2023/06/12 04:20:38;;;;;;;10.98;3.65;;;;;;;15.52;100.00;101150.16;5012948;28;20042;-64
2023/06/12 04:23:11;;;;;;;11.40;3.90;;;;;;;15.53;100.00;101157.16;5008948;28;20045;-64
2023/06/12 04:25:38;;;;;;;11.30;4.40;;;;;;;15.66;100.00;101167.91;5010603;28;20053;-64
2023/06/12 04:28:08;;;;;;;9.77;3.17;;;;;;;15.62;100.00;101168.19;5007188;28;20054;-64
2023/06/12 04:30:35;;;;;;;11.32;3.97;;;;;;;15.69;100.00;101169.56;5013761;28;20468;-64
2023/06/12 04:33:03;;;;;;;10.00;3.25;;;;;;;15.74;100.00;101163.13;5010621;28;20066;-64
2023/06/12 04:35:33;;;;;;;10.15;3.92;;;;;;;15.58;100.00;101167.47;5003895;28;20054;-64
2023/06/12 04:38:00;;;;;;;11.35;4.18;;;;;;;15.40;100.00;101129.69;5000098;28;20141;-63
2023/06/12 04:40:27;;;;;;;9.32;3.55;;;;;;;15.71;100.00;101163.25;5011076;28;20487;-63
2023/06/12 04:42:56;;;;;;;10.05;3.65;;;;;;;15.74;100.00;101163.13;5007354;28;20145;-63
2023/06/12 04:45:23;;;;;;;10.07;3.58;;;;;;;15.84;100.00;101163.50;4997942;28;20364;-64
2023/06/12 04:47:51;;;;;;;10.38;4.15;;;;;;;15.91;100.00;101170.16;5004299;28;20530;-64
2023/06/12 04:50:18;;;;;;;8.85;3.55;;;;;;;15.87;100.00;101158.06;5007912;28;20487;-64
2023/06/12 04:52:47;;;;;;;9.13;3.47;;;;;;;15.91;100.00;101164.03;5003525;28;20057;-64
2023/06/12 04:55:20;;;;;;;8.82;3.50;;;;;;;16.10;100.00;101177.97;5010563;28;20081;-64
2023/06/12 04:57:47;;;;;;;8.65;3.42;;;;;;;16.02;100.00;101159.00;5005244;28;20051;-64
2023/06/12 05:00:15;;;;;;;11.48;4.78;;;;;;;16.12;100.00;101167.31;5013431;28;20049;-64
2023/06/12 05:02:44;;;;;;;9.80;3.70;;;;;;;16.08;100.00;101176.34;5011999;28;20046;-64
2023/06/12 05:05:10;;;;;;;9.50;3.53;;;;;;;16.05;100.00;101169.41;4999550;28;21272;-64
2023/06/12 05:07:37;;;;;;;8.80;3.33;;;;;;;16.04;100.00;101165.09;5012319;28;20041;-64
2023/06/12 05:10:04;;;;;;;6.53;2.47;;;;;;;16.07;100.00;101170.19;5012270;28;20081;-64
2023/06/12 05:12:31;;;;;;;10.13;3.92;;;;;;;16.08;100.00;101169.25;5006526;28;20053;-64
2023/06/12 05:15:01;;;;;;;7.20;2.65;;;;;;;16.01;100.00;101169.69;5009900;28;20054;-64
2023/06/12 05:17:28;;;;;;;7.70;2.58;;;;;;;16.02;100.00;101174.84;5011680;28;20128;-64
2023/06/12 05:19:55;;;;;;;6.82;2.38;;;;;;;16.00;100.00;101179.38;5013603;28;20490;-64
2023/06/12 05:22:21;;;;;;;5.80;2.08;;;;;;;16.09;100.00;101178.03;5005581;28;20667;-64
2023/06/12 05:24:48;;;;;;;7.60;2.70;;;;;;;16.19;100.00;101178.41;4999283;28;20495;-63
2023/06/12 05:27:15;;;;;;;8.40;3.00;;;;;;;16.17;100.00;101186.41;5006002;28;20494;-64
2023/06/12 05:29:42;;;;;;;9.57;3.22;;;;;;;16.29;100.00;101188.38;5001060;28;20108;-63
2023/06/12 05:32:08;;;;;;;7.93;2.97;;;;;;;16.27;100.00;101186.75;4998901;28;20076;-64
2023/06/12 05:34:35;;;;;;;6.72;2.50;;;;;;;16.29;100.00;101188.38;5001258;28;20098;-63
2023/06/12 05:37:03;;;;;;;9.55;3.13;;;;;;;16.30;100.00;101186.59;4998166;28;20070;-63
2023/06/12 05:39:30;;;;;;;6.50;2.10;;;;;;;16.28;100.00;101177.91;4999335;28;20046;-65
2023/06/12 05:41:57;;;;;;;6.55;2.42;;;;;;;16.43;100.00;101192.06;5010214;28;20050;-63
2023/06/12 05:44:23;;;;;;;12.95;4.65;;;;;;;16.49;100.00;101186.44;5005195;28;20585;-64
2023/06/12 05:46:52;;;;;;;9.77;4.05;;;;;;;16.47;100.00;101177.75;5009717;28;20053;-63
2023/06/12 05:49:19;;;;;;;8.60;2.97;;;;;;;16.50;100.00;101193.41;4998686;28;20598;-63
2023/06/12 05:51:48;;;;;;;6.78;2.25;;;;;;;16.42;100.00;101185.91;5005669;28;20399;-63
2023/06/12 05:54:15;;;;;;;4.88;2.03;;;;;;;16.45;100.00;101179.59;5002118;28;20096;-65
2023/06/12 05:56:41;;;;;;;9.93;3.30;;;;;;;16.58;100.00;101185.09;5003755;28;20602;-63
2023/06/12 05:59:08;;;;;;;6.15;1.90;;;;;;;16.55;100.00;101182.59;5008174;28;20124;-63
2023/06/12 06:01:35;;;;;;;4.78;1.50;;;;;;;16.62;100.00;101197.19;5004615;28;20165;-64
2023/06/12 06:04:02;;;;;;;5.57;1.75;;;;;;;16.58;100.00;101191.22;4996742;28;20053;-63
2023/06/12 06:06:30;;;;;;;6.68;2.17;;;;;;;16.48;100.00;101182.97;5006221;28;20434;-63
2023/06/12 06:08:57;;;;;;;5.07;1.58;;;;;;;16.62;100.00;101192.75;5014436;28;20074;-64
2023/06/12 06:11:24;;;;;;;3.72;1.30;;;;;;;16.66;100.00;101182.84;5002576;28;20052;-64
2023/06/12 06:13:51;;;;;;;6.05;2.25;;;;;;;16.51;100.00;101187.22;4999092;28;20054;-64
2023/06/12 06:16:17;;;;;;;6.53;2.10;;;;;;;16.51;100.00;101189.84;4992541;28;20056;-64
2023/06/12 06:18:44;;;;;;;5.40;1.70;;;;;;;16.68;100.00;101192.41;5003209;28;20058;-64
2023/06/12 06:21:11;;;;;;;4.25;1.35;;;;;;;16.72;100.00;101189.59;5016861;28;20068;-64
2023/06/12 06:23:39;;;;;;;4.15;1.40;;;;;;;16.53;100.00;101182.69;4999230;28;20072;-62
2023/06/12 06:26:08;;;;;;;4.45;1.65;;;;;;;16.76;100.00;101201.69;5005844;28;20552;-63
2023/06/12 06:28:36;;;;;;;5.55;1.67;;;;;;;16.77;100.00;101204.25;5010352;28;20758;-63
2023/06/12 06:31:06;;;;;;;3.95;1.50;;;;;;;16.62;100.00;101192.75;5002016;28;20535;-63
2023/06/12 06:33:33;;;;;;;2.72;1.10;;;;;;;16.94;100.00;101203.31;5008479;28;20132;-63
2023/06/12 06:36:00;;;;;;;5.88;2.13;;;;;;;16.80;100.00;101197.94;5002770;28;20056;-63
2023/06/12 06:38:27;;;;;;;4.18;1.58;;;;;;;16.96;100.00;101200.59;4996392;28;20148;-63
2023/06/12 06:40:54;;;;;;;5.25;1.83;;;;;;;17.18;100.00;101200.22;4996119;28;20096;-63
2023/06/12 06:43:21;;;;;;;6.75;2.13;;;;;;;17.46;100.00;101192.38;5005360;28;20438;-63
2023/06/12 06:45:48;;;;;;;8.38;2.45;;;;;;;18.56;100.00;101205.09;5006443;28;20133;-63
2023/06/12 06:48:14;;;;;;;9.25;3.33;;;;;;;19.24;100.00;101198.06;4997500;28;20129;-63
2023/06/12 06:50:42;;;;;;;10.80;2.83;;;;;;;19.56;100.00;101196.84;5003609;28;20046;-63
2023/06/12 06:53:09;;;;;;;6.68;2.40;;;;;;;20.27;100.00;101198.13;4995558;28;20125;-63
2023/06/12 06:55:36;;;;;;;6.72;2.25;;;;;;;20.53;100.00;101204.25;4996309;28;20049;-64
2023/06/12 06:58:04;;;;;;;6.40;2.25;;;;;;;19.95;100.00;101203.91;4995040;28;20076;-63
2023/06/12 07:00:31;;;;;;;9.70;2.85;;;;;;;20.33;100.00;101211.00;4991745;28;20144;-64
2023/06/12 07:02:58;;;;;;;7.65;2.35;;;;;;;20.67;100.00;101212.09;5008256;28;20049;-65
2023/06/12 07:05:27;;;;;;;7.60;2.38;;;;;;;20.89;100.00;101217.66;5008848;28;20104;-65
2023/06/12 07:07:54;;;;;;;6.78;2.22;;;;;;;21.57;100.00;101222.34;5008943;28;20137;-65
2023/06/12 07:10:28;;;;;;;8.45;2.80;;;;;;;21.95;100.00;101212.34;5010516;28;20081;-65
2023/06/12 07:12:58;;;;;;;10.77;2.40;;;;;;;22.27;100.00;101211.63;5008872;28;20053;-65
2023/06/12 07:15:25;;;;;;;9.88;3.35;;;;;;;22.77;100.00;101216.53;5010651;28;20045;-65
2023/06/12 07:17:52;;;;;;;7.55;2.38;;;;;;;23.26;100.00;101225.88;5008173;28;20061;-68
2023/06/12 07:20:19;;;;;;;9.25;2.60;;;;;;;23.62;100.00;101224.59;5007298;28;20072;-67
2023/06/12 07:22:46;;;;;;;12.05;4.03;;;;;;;23.26;100.00;101223.19;5005452;28;20054;-66
2023/06/12 07:25:14;;;;;;;7.85;2.75;;;;;;;23.23;100.00;101221.66;5004413;28;20049;-66
2023/06/12 07:27:41;;;;;;;10.50;3.45;;;;;;;23.23;100.00;101232.31;5018613;28;20049;-66
2023/06/12 07:30:08;;;;;;;9.68;2.65;;;;;;;22.75;100.00;101233.53;5012052;28;20054;-66
2023/06/12 07:32:35;;;;;;;7.05;2.63;;;;;;;22.88;100.00;101229.88;5016284;28;20050;-66
2023/06/12 07:35:03;;;;;;;7.75;2.75;;;;;;;22.77;100.00;101217.41;5009192;28;20141;-66
2023/06/12 07:37:35;;;;;;;7.72;2.50;;;;;;;22.52;100.00;101230.06;5020349;28;20073;-66
2023/06/12 07:40:05;;;;;;;9.05;2.97;;;;;;;22.78;100.00;101226.25;4999123;28;20037;-66
2023/06/12 07:42:35;;;;;;;9.63;3.10;;;;;;;22.96;100.00;101227.41;5025750;28;20049;-66
2023/06/12 07:45:03;;;;;;;10.02;3.70;;;;;;;22.83;100.00;101237.41;5030638;28;20446;-66
2023/06/12 07:47:30;;;;;;;10.75;3.75;;;;;;;23.27;100.00;101228.41;5017527;28;20073;-66
2023/06/12 07:49:58;;;;;;;9.75;3.83;;;;;;;23.79;100.00;101224.97;5000163;28;20144;-65
2023/06/12 07:52:24;;;;;;;8.80;3.38;;;;;;;24.01;100.00;101224.84;5015850;28;20507;-65
2023/06/12 07:54:51;;;;;;;10.35;3.05;;;;;;;24.39;100.00;101220.63;4992726;28;20046;-65
2023/06/12 07:57:18;;;;;;;6.72;2.40;;;;;;;24.89;100.00;101221.59;5009284;28;20042;-65
2023/06/12 07:59:45;;;;;;;10.90;3.92;;;;;;;24.69;100.00;101220.72;5021309;28;20049;-65
2023/06/12 08:02:14;;;;;;;8.18;2.90;;;;;;;25.22;100.00;101224.88;5016763;28;20108;-64
2023/06/12 08:04:42;;;;;;;8.18;2.40;;;;;;;25.39;100.00;101219.66;4999241;28;20067;-65
2023/06/12 08:07:11;;;;;;;8.35;2.85;;;;;;;25.14;100.00;101233.59;5003225;28;20050;-65
2023/06/12 08:09:40;;;;;;;6.43;2.28;;;;;;;24.96;100.00;101231.59;5020655;28;20057;-67
2023/06/12 08:12:10;;;;;;;9.32;3.63;;;;;;;25.63;100.00;101230.91;5018341;28;20100;-65
2023/06/12 08:14:38;;;;;;;8.25;2.90;;;;;;;25.37;100.00;101228.81;5004502;28;20061;-65
2023/06/12 08:17:06;;;;;;;7.28;2.47;;;;;;;25.20;100.00;101235.72;5004922;28;20136;-65
2023/06/12 08:19:34;;;;;;;7.15;2.67;;;;;;;25.56;100.00;101230.66;5004152;28;20399;-65
2023/06/12 08:22:03;;;;;;;9.55;4.07;;;;;;;24.73;100.00;101233.69;5017137;28;20097;-65
2023/06/12 08:24:30;;;;;;;8.00;2.25;;;;;;;24.35;100.00;101231.75;4994876;28;20054;-65
2023/06/12 08:26:58;;;;;;;9.80;2.50;;;;;;;24.18;100.00;101241.25;4995993;28;21560;-65
2023/06/12 08:29:25;;;;;;;8.13;2.60;;;;;;;23.98;100.00;101226.94;4999403;28;20080;-65
2023/06/12 08:31:53;;;;;;;10.48;3.25;;;;;;;23.87;100.00;101231.38;5009751;28;20045;-65
2023/06/12 08:34:24;;;;;;;7.55;1.92;;;;;;;23.71;100.00;101239.00;5009249;28;20092;-65
2023/06/12 08:36:52;;;;;;;8.18;2.95;;;;;;;23.28;100.00;101232.78;5009605;28;20167;-65
2023/06/12 08:39:19;;;;;;;13.15;3.95;;;;;;;24.07;100.00;101226.97;5009950;28;20045;-65
2023/06/12 08:42:09;;;;;;;11.98;4.90;;;;;;;23.83;100.00;101232.63;5008748;28;20061;-65
2023/06/12 08:44:35;;;;;;;20.60;6.70;;;;;;;24.20;100.00;101236.59;5008200;28;20050;-64
2023/06/12 08:47:03;;;;;;;14.60;5.40;;;;;;;24.14;100.00;101239.81;5009527;28;20050;-66
2023/06/12 08:49:31;;;;;;;13.63;6.22;;;;;;;23.74;100.00;101237.88;5004480;28;20054;-68
2023/06/12 08:51:58;;;;;;;15.13;4.97;;;;;;;24.14;100.00;101246.00;4996442;28;20064;-66
2023/06/12 08:54:25;;;;;;;12.10;4.57;;;;;;;24.54;100.00;101239.88;4991715;28;20491;-66
2023/06/12 08:56:54;;;;;;;12.43;4.60;;;;;;;24.97;100.00;101243.19;4991282;28;20060;-66
2023/06/12 08:59:21;;;;;;;13.48;4.60;;;;;;;24.48;100.00;101239.53;4995103;28;20141;-67
2023/06/12 09:01:53;;;;;;;15.40;4.57;;;;;;;24.94;100.00;101255.00;4998242;28;20050;-66
2023/06/12 09:04:44;;;;;;;11.27;4.05;;;;;;;24.77;100.00;101256.56;4996489;28;20065;-67
2023/06/12 09:07:17;;;;;;;14.88;5.00;;;;;;;24.85;100.00;101245.13;4995398;28;20046;-66
2023/06/12 09:09:46;;;;;;;15.60;5.05;;;;;;;24.87;100.00;101235.13;5014434;28;20402;-66
2023/06/12 09:12:15;;;;;;;16.48;7.13;;;;;;;24.42;100.00;101243.59;5017427;28;20042;-67
2023/06/12 09:14:45;;;;;;;17.35;5.63;;;;;;;24.33;100.00;101252.41;5031630;28;20044;-66
2023/06/12 09:17:12;;;;;;;16.80;6.55;;;;;;;24.62;100.00;101261.44;5022612;28;20042;-67
2023/06/12 09:19:43;;;;;;;15.45;6.13;;;;;;;23.96;100.00;101267.19;5007631;28;20119;-66
2023/06/12 09:22:11;;;;;;;17.20;7.15;;;;;;;23.34;100.00;101258.16;4996000;28;20101;-67
2023/06/12 09:24:38;;;;;;;12.68;5.07;;;;;;;23.38;100.00;101267.59;5000296;28;20050;-69
2023/06/12 09:27:05;;;;;;;14.68;5.35;;;;;;;22.82;100.00;101254.38;5001144;28;20080;-68
2023/06/12 09:29:34;;;;;;;12.70;4.70;;;;;;;22.95;100.00;101271.13;4999723;28;20149;-67
2023/06/12 09:32:13;;;;;;;14.02;5.25;;;;;;;22.72;100.00;101254.28;4999025;28;20054;-67
2023/06/12 09:34:48;;;;;;;15.43;5.82;;;;;;;22.79;100.00;101278.66;5000582;28;20188;-67
2023/06/12 09:37:16;;;;;;;15.57;6.20;;;;;;;22.42;100.00;101266.44;4999381;28;20046;-67
2023/06/12 09:39:44;;;;;;;15.13;5.20;;;;;;;22.49;100.00;101270.31;5001142;28;20440;-67
2023/06/12 09:42:13;;;;;;;11.23;4.88;;;;;;;22.63;100.00;101263.03;5001384;28;20492;-67
2023/06/12 09:44:41;;;;;;;12.68;4.35;;;;;;;22.57;100.00;101264.38;4997557;28;20145;-67
2023/06/12 09:47:08;;;;;;;17.77;5.38;;;;;;;22.84;100.00;101263.97;4996852;28;20181;-67
2023/06/12 09:49:37;;;;;;;15.20;4.97;;;;;;;23.02;100.00;101264.28;5001681;28;20054;-67
2023/06/12 09:52:05;;;;;;;15.43;6.05;;;;;;;23.10;100.00;101275.22;5007112;28;20391;-67
2023/06/12 09:54:33;;;;;;;26.45;8.63;;;;;;;22.54;100.00;101254.81;5009831;28;20053;-67
2023/06/12 09:57:05;;;;;;;18.70;7.78;;;;;;;22.64;100.00;101267.41;5001725;28;20077;-68
2023/06/12 09:59:33;;;;;;;19.75;6.75;;;;;;;23.00;100.00;101273.38;5016038;28;20124;-68
2023/06/12 10:02:15;;;;;;;17.13;5.85;;;;;;;22.88;100.00;101269.91;5021984;28;20050;-68
2023/06/12 10:05:16;;;;;;;12.77;5.07;;;;;;;22.94;100.00;101275.59;4999081;28;20061;-68
2023/06/12 10:07:48;;;;;;;14.15;5.68;;;;;;;22.75;100.00;101272.72;5020952;28;20065;-68
2023/06/12 10:10:15;;;;;;;13.55;5.00;;;;;;;23.19;100.00;101286.13;4994192;28;20133;-68
2023/06/12 10:12:42;;;;;;;13.10;5.32;;;;;;;23.25;100.00;101274.94;5009380;28;20042;-68
2023/06/12 10:15:11;;;;;;;12.77;4.95;;;;;;;23.10;100.00;101277.03;5022508;28;20060;-67
2023/06/12 10:17:42;;;;;;;15.45;6.20;;;;;;;23.24;100.00;101284.75;5010081;28;20557;-68
2023/06/12 10:20:11;;;;;;;13.77;5.50;;;;;;;22.98;100.00;101286.84;5015420;28;20111;-67
2023/06/12 10:22:39;;;;;;;18.98;6.90;;;;;;;22.41;100.00;101270.06;5016932;28;20053;-68
2023/06/12 10:25:08;;;;;;;12.73;4.43;;;;;;;22.30;100.00;101275.41;5025820;28;20050;-67
2023/06/12 10:27:38;;;;;;;10.35;4.47;;;;;;;22.40;100.00;101270.19;5010093;28;20543;-68
2023/06/12 10:30:10;;;;;;;12.40;5.38;;;;;;;22.44;100.00;101277.00;5017644;28;20477;-67
2023/06/12 10:32:38;;;;;;;;;;;;;;;22.37;100.00;101293.47;5030200;28;20053;-68
2023/06/12 10:35:06;;;;;;;13.45;5.30;;;;;;;22.22;100.00;101288.47;5015926;28;19924;-67
2023/06/12 10:37:39;;;;;;;13.45;4.70;;;;;;;21.94;100.00;101287.97;5010856;28;20482;-68
2023/06/12 10:40:15;;;;;;;13.55;4.35;;;;;;;22.37;100.00;101285.47;5003927;28;20455;-68
2023/06/12 10:42:54;;;;;;;14.80;4.93;;;;;;;22.99;100.00;101285.06;4994663;28;20129;-67
2023/06/12 10:45:26;;;;;;;13.35;5.57;;;;;;;22.90;100.00;101275.97;5028860;28;20046;-68
2023/06/12 10:48:12;;;;;;;11.83;3.57;;;;;;;23.59;100.00;101286.31;5016635;28;20500;-68
2023/06/12 10:50:45;;;;;;;14.52;4.80;;;;;;;23.54;100.00;101295.72;5018180;28;20301;-68
2023/06/12 10:53:14;;;;;;;14.55;5.05;;;;;;;23.61;100.00;101291.53;5027050;28;20050;-67
2023/06/12 10:55:42;;;;;;;16.48;6.53;;;;;;;23.76;100.00;101292.06;5012237;28;20053;-67
2023/06/12 10:58:15;;;;;;;15.02;4.60;;;;;;;23.46;100.00;101299.00;5012436;28;20424;-67
2023/06/12 11:00:52;;;;;;;13.23;4.80;;;;;;;23.58;100.00;101294.47;5030158;28;20060;-68
2023/06/12 11:03:25;;;;;;;18.05;7.20;;;;;;;23.25;100.00;101291.81;5019907;28;20414;-68
2023/06/12 11:05:55;;;;;;;14.15;5.00;;;;;;;23.25;100.00;101294.47;5030542;28;20080;-68
2023/06/12 11:08:26;;;;;;;13.95;5.60;;;;;;;23.16;100.00;101299.72;5017733;28;20161;-68
2023/06/12 11:10:53;;;;;;;13.68;5.10;;;;;;;23.20;100.00;101301.19;4993110;28;20443;-68
2023/06/12 11:13:24;;;;;;;11.98;4.75;;;;;;;23.39;100.00;101288.00;5004124;28;20052;-67
2023/06/12 11:15:52;;;;;;;14.38;6.18;;;;;;;23.16;100.00;101281.91;5000559;28;20058;-68
2023/06/12 11:18:20;;;;;;;21.25;5.57;;;;;;;23.02;100.00;101279.44;5003983;28;20049;-67